createdAt,value
2022-09-21T00:02:29.368Z,8.5
2022-09-21T00:07:35.834Z,8.4
2022-09-21T00:13:06.326Z,8.4
2022-09-21T00:18:08.719Z,8.3
2022-09-21T00:23:19.108Z,8.2
2022-09-21T00:28:25.605Z,8.2
2022-09-21T00:33:07.980Z,8.1
2022-09-21T00:38:18.328Z,8.0
2022-09-21T00:43:21.836Z,8.0
2022-09-21T00:53:34.638Z,7.9
2022-09-21T00:58:41.120Z,7.8
2022-09-21T01:03:47.471Z,7.7
2022-09-21T01:08:53.856Z,7.7
2022-09-21T01:14:00.337Z,7.6
2022-09-21T01:19:06.810Z,7.6
2022-09-21T01:24:17.193Z,7.5
2022-09-21T01:29:19.627Z,7.5
2022-09-21T01:34:25.944Z,7.4
2022-09-21T01:39:32.329Z,7.4
2022-09-21T01:44:27.732Z,7.3
2022-09-21T01:49:45.215Z,7.2
2022-09-21T01:54:51.604Z,7.2
2022-09-21T01:59:58.009Z,7.1
2022-09-21T02:04:54.329Z,7.1
2022-09-21T02:10:10.836Z,7.0
2022-09-21T02:15:07.213Z,7.0
2022-09-21T02:20:23.608Z,6.9
2022-09-21T02:25:29.966Z,6.9
2022-09-21T02:31:00.558Z,6.8
2022-09-21T02:35:42.798Z,6.8
2022-09-21T02:40:39.231Z,6.7
2022-09-21T02:45:45.551Z,6.7
2022-09-21T02:51:26.011Z,6.6
2022-09-21T02:56:08.310Z,6.6
2022-09-21T03:01:04.761Z,6.5
2022-09-21T03:06:21.164Z,6.5
2022-09-21T03:11:47.610Z,6.4
2022-09-21T03:16:33.925Z,6.4
2022-09-21T03:22:04.339Z,6.3
2022-09-21T03:26:46.663Z,6.3
2022-09-21T03:31:43.122Z,6.2
2022-09-21T03:36:59.557Z,6.2
2022-09-21T03:42:05.930Z,6.2
2022-09-21T03:47:12.327Z,6.1
2022-09-21T03:52:18.699Z,6.1
2022-09-21T03:57:25.071Z,6.0
2022-09-21T04:02:31.564Z,6.0
2022-09-21T04:07:37.844Z,5.9
2022-09-21T04:12:44.242Z,5.9
2022-09-21T04:17:50.839Z,5.8
2022-09-21T04:28:23.690Z,5.8
2022-09-21T04:33:14.077Z,5.7
2022-09-21T04:43:12.784Z,5.6
2022-09-21T04:53:35.553Z,5.6
2022-09-21T04:59:06.035Z,5.5
2022-09-21T05:03:48.386Z,5.5
2022-09-21T05:14:45.148Z,5.4
2022-09-21T05:19:07.537Z,5.4
2022-09-21T05:24:03.884Z,5.3
2022-09-21T05:29:10.255Z,5.3
2022-09-21T05:34:26.744Z,5.3
2022-09-21T05:39:57.085Z,5.2
2022-09-21T05:44:59.453Z,5.2
2022-09-21T05:55:16.272Z,5.2
2022-09-21T05:59:58.621Z,5.2
2022-09-21T06:05:05.202Z,5.2
2022-09-21T06:10:11.786Z,5.2
2022-09-21T06:15:38.350Z,5.2
2022-09-21T06:20:24.668Z,5.2
2022-09-21T06:26:31.175Z,5.3
2022-09-21T06:30:37.461Z,5.4
2022-09-21T06:35:43.796Z,5.4
2022-09-21T06:41:10.223Z,5.6
2022-09-21T06:46:20.712Z,5.7
2022-09-21T06:52:03.074Z,5.8
2022-09-21T06:55:59.352Z,6.0
2022-09-21T07:01:39.980Z,6.3
2022-09-21T07:06:22.170Z,6.5
2022-09-21T07:11:18.526Z,6.7
2022-09-21T07:16:59.069Z,6.9
2022-09-21T07:21:31.340Z,7.1
2022-09-21T07:31:54.193Z,7.6
2022-09-21T07:37:00.559Z,8.1
2022-09-21T07:42:06.924Z,9.0
2022-09-21T07:47:13.310Z,10.1
2022-09-21T07:52:19.763Z,11.3
2022-09-21T07:57:46.096Z,12.6
2022-09-21T08:02:32.554Z,13.7
2022-09-21T08:08:03.038Z,14.9
2022-09-21T08:12:45.434Z,16.0
2022-09-21T08:17:51.917Z,16.9
2022-09-21T08:22:58.406Z,17.9
2022-09-21T08:28:10.008Z,18.9
2022-09-21T08:33:11.178Z,19.7
2022-09-21T08:38:17.565Z,20.5
2022-09-21T08:43:23.989Z,21.2
2022-09-21T08:48:35.872Z,21.9
2022-09-21T08:54:00.885Z,22.6
2022-09-21T08:59:03.374Z,23.3
2022-09-21T09:03:49.697Z,24.0
2022-09-21T09:08:56.241Z,24.5
2022-09-21T09:14:02.607Z,25.1
2022-09-21T09:24:15.972Z,26.3
2022-09-21T09:29:47.384Z,26.8
2022-09-21T09:34:49.754Z,27.3
2022-09-21T09:42:14.421Z,27.8
2022-09-21T09:45:44.587Z,28.3
2022-09-21T09:50:32.936Z,28.7
2022-09-21T09:54:55.238Z,29.3
2022-09-21T10:00:01.644Z,29.8
2022-09-21T10:05:32.080Z,30.2
2022-09-21T10:10:28.445Z,30.5
2022-09-21T10:15:10.805Z,31.0
2022-09-21T10:20:27.170Z,31.5
2022-09-21T10:25:38.039Z,31.9
2022-09-21T10:30:45.619Z,32.4
2022-09-21T10:35:47.896Z,32.5
2022-09-21T10:40:54.296Z,32.4
2022-09-21T10:46:00.834Z,32.1
2022-09-21T10:56:48.613Z,31.8
2022-09-21T11:07:01.424Z,31.0
2022-09-21T11:12:07.915Z,30.7
2022-09-21T11:17:04.304Z,30.6
2022-09-21T11:22:20.687Z,30.9
2022-09-21T11:27:27.067Z,31.3
2022-09-21T11:32:33.471Z,31.7
2022-09-21T11:37:39.839Z,32.2
2022-09-21T11:42:46.324Z,32.7
2022-09-21T11:47:52.834Z,32.9
2022-09-21T11:53:23.226Z,33.0
2022-09-21T11:58:05.566Z,32.9
2022-09-21T12:03:11.987Z,33.0
2022-09-21T12:08:18.341Z,33.1
2022-09-21T12:13:14.713Z,33.2
2022-09-21T12:18:21.236Z,33.2
2022-09-21T12:23:41.193Z,33.3
2022-09-21T12:28:47.568Z,33.3
2022-09-21T12:33:53.980Z,33.2
2022-09-21T12:39:00.324Z,33.1
2022-09-21T12:44:30.886Z,33.0
2022-09-21T12:49:03.327Z,32.8
2022-09-21T12:54:45.327Z,32.6
2022-09-21T12:59:26.081Z,32.5
2022-09-21T13:04:52.675Z,32.3
2022-09-21T13:09:39.007Z,32.2
2022-09-21T13:14:45.385Z,32.1
2022-09-21T13:19:51.757Z,32.0
2022-09-21T13:24:58.244Z,31.9
2022-09-21T13:30:04.517Z,31.9
2022-09-21T13:35:00.887Z,31.8
2022-09-21T13:40:17.417Z,31.7
2022-09-21T13:46:35.830Z,31.7
2022-09-21T13:50:30.064Z,31.6
2022-09-21T13:56:20.644Z,31.6
2022-09-21T14:01:03.064Z,31.6
2022-09-21T14:05:49.284Z,31.5
2022-09-21T14:10:45.669Z,31.5
2022-09-21T14:16:02.137Z,31.4
2022-09-21T14:21:08.451Z,31.3
2022-09-21T14:26:14.845Z,31.2
2022-09-21T14:36:30.122Z,30.9
2022-09-21T14:41:34.017Z,30.7
2022-09-21T14:46:40.454Z,30.5
2022-09-21T14:51:46.742Z,30.1
2022-09-21T14:56:53.256Z,29.8
2022-09-21T15:01:59.676Z,29.4
2022-09-21T15:07:06.015Z,28.9
2022-09-21T15:12:12.398Z,28.5
2022-09-21T15:17:18.929Z,28.1
2022-09-21T15:22:15.289Z,27.6
2022-09-21T15:27:55.747Z,27.2
2022-09-21T15:32:38.094Z,26.7
2022-09-21T15:37:34.421Z,26.2
2022-09-21T15:42:50.954Z,25.8
2022-09-21T15:47:47.342Z,25.4
2022-09-21T15:53:03.713Z,24.9
2022-09-21T15:58:34.146Z,24.5
2022-09-21T16:03:36.638Z,24.1
2022-09-21T16:08:22.913Z,23.7
2022-09-21T16:13:29.347Z,23.3
2022-09-21T16:18:39.755Z,22.9
2022-09-21T16:23:42.102Z,22.6
2022-09-21T16:28:48.476Z,22.2
2022-09-21T16:39:01.264Z,21.6
2022-09-21T16:43:57.626Z,21.3
2022-09-21T16:49:14.051Z,21.0
2022-09-21T16:54:20.421Z,20.7
2022-09-21T16:59:26.912Z,20.5
2022-09-21T17:04:33.365Z,20.3
2022-09-21T17:09:39.729Z,20.0
2022-09-21T17:14:47.349Z,19.7
2022-09-21T17:19:52.617Z,19.5
2022-09-21T17:25:23.008Z,19.3
2022-09-21T17:30:05.341Z,19.1
2022-09-21T17:35:11.738Z,18.9
2022-09-21T17:40:18.150Z,18.6
2022-09-21T17:45:24.478Z,18.4
2022-09-21T17:50:30.887Z,18.2
2022-09-21T17:55:37.236Z,18.0
2022-09-21T18:00:43.625Z,17.8
2022-09-21T18:05:50.159Z,17.6
2022-09-21T18:10:56.499Z,17.3
2022-09-21T18:15:52.941Z,17.1
2022-09-21T18:21:29.341Z,16.9
2022-09-21T18:26:15.680Z,16.7
2022-09-21T18:31:12.182Z,16.5
2022-09-21T18:36:28.634Z,16.3
2022-09-21T18:41:35.092Z,16.2
2022-09-21T18:46:41.509Z,16.0
2022-09-21T18:51:47.829Z,15.8
2022-09-21T18:56:54.241Z,15.6
2022-09-21T19:02:00.857Z,15.5
2022-09-21T19:07:07.076Z,15.3
2022-09-21T19:12:03.467Z,15.1
2022-09-21T19:17:18.840Z,15.0
2022-09-21T19:22:16.197Z,14.8
2022-09-21T19:27:22.617Z,14.7
2022-09-21T19:32:39.203Z,14.5
2022-09-21T19:38:05.717Z,14.4
2022-09-21T19:42:52.143Z,14.2
2022-09-21T19:48:02.458Z,14.1
2022-09-21T19:53:04.826Z,13.9
2022-09-21T19:58:11.231Z,13.8
2022-09-21T20:03:17.590Z,13.7
2022-09-21T20:08:24.194Z,13.5
2022-09-21T20:13:30.603Z,13.4
2022-09-21T20:18:36.966Z,13.3
2022-09-21T20:24:55.468Z,13.2
2022-09-21T20:28:49.743Z,13.0
2022-09-21T20:33:56.242Z,12.9
2022-09-21T20:39:02.714Z,12.8
2022-09-21T20:44:09.156Z,12.7
2022-09-21T20:49:15.538Z,12.5
2022-09-21T20:54:49.311Z,12.4
2022-09-21T21:00:12.492Z,12.3
2022-09-21T21:04:34.715Z,12.2
2022-09-21T21:09:55.155Z,12.1
2022-09-21T21:14:47.622Z,12.0
2022-09-21T21:19:54.038Z,11.9
2022-09-21T21:25:00.382Z,11.8
2022-09-21T21:29:56.749Z,11.7
2022-09-21T21:35:27.315Z,11.6
2022-09-21T21:40:19.761Z,11.5
2022-09-21T21:45:26.240Z,11.4
2022-09-21T21:50:36.647Z,11.3
2022-09-21T21:55:38.983Z,11.2
2022-09-21T22:00:45.404Z,11.1
2022-09-21T22:10:58.360Z,10.9
2022-09-21T22:16:04.899Z,10.8
2022-09-21T22:21:11.277Z,10.7
2022-09-21T22:26:17.628Z,10.6
2022-09-21T22:31:14.133Z,10.6
2022-09-21T22:36:50.542Z,10.5
2022-09-21T22:41:36.901Z,10.4
2022-09-21T22:46:33.457Z,10.3
2022-09-21T22:52:10.027Z,10.2
2022-09-21T22:56:56.336Z,10.2
2022-09-21T23:01:52.703Z,10.1
2022-09-21T23:07:09.103Z,10.0
2022-09-21T23:12:15.536Z,9.9
2022-09-21T23:17:45.927Z,9.8
2022-09-21T23:22:28.253Z,9.8
2022-09-21T23:27:34.661Z,9.7
2022-09-21T23:32:41.027Z,9.6
2022-09-21T23:37:47.411Z,9.5
2022-09-21T23:43:13.862Z,9.5
2022-09-21T23:48:00.173Z,9.4
2022-09-21T23:52:56.545Z,9.3
2022-09-21T23:58:12.949Z,9.2
